createdAt,value
2018-08-22T00:00:09.363Z,3.20
2018-08-22T00:01:09.342Z,3.30
2018-08-22T00:02:09.322Z,3.30
2018-08-22T00:03:09.309Z,3.20
2018-08-22T00:04:09.280Z,3.70
2018-08-22T00:05:09.265Z,3.40
2018-08-22T00:06:09.241Z,3.20
2018-08-22T00:07:09.222Z,3.30
2018-08-22T00:08:09.200Z,3.20
2018-08-22T00:09:09.177Z,3.50
2018-08-22T00:10:09.159Z,3.50
2018-08-22T00:11:09.137Z,3.50
2018-08-22T00:12:09.119Z,4.00
2018-08-22T00:13:09.097Z,3.60
2018-08-22T00:14:09.077Z,3.60
2018-08-22T00:15:09.087Z,3.30
2018-08-22T00:16:09.035Z,3.40
2018-08-22T00:17:09.014Z,3.80
2018-08-22T00:18:08.991Z,3.80
2018-08-22T00:19:08.971Z,3.20
2018-08-22T00:20:08.953Z,3.60
2018-08-22T00:21:08.934Z,3.80
2018-08-22T00:22:08.910Z,3.50
2018-08-22T00:23:08.896Z,3.60
2018-08-22T00:24:08.869Z,3.50
2018-08-22T00:25:08.846Z,3.00
2018-08-22T00:26:08.828Z,3.10
2018-08-22T00:27:08.805Z,3.20
2018-08-22T00:28:08.791Z,3.10
2018-08-22T00:29:08.819Z,3.60
2018-08-22T00:30:08.742Z,3.30
2018-08-22T00:31:08.725Z,3.10
2018-08-22T00:32:08.704Z,3.20
2018-08-22T00:33:08.686Z,3.10
2018-08-22T00:34:08.664Z,3.20
2018-08-22T00:35:08.650Z,3.50
2018-08-22T00:36:08.627Z,3.60
2018-08-22T00:37:08.599Z,3.90
2018-08-22T00:38:08.579Z,3.80
2018-08-22T00:39:08.561Z,3.30
2018-08-22T00:40:08.540Z,3.80
2018-08-22T00:41:08.511Z,3.80
2018-08-22T00:42:08.498Z,3.50
2018-08-22T00:43:08.477Z,3.50
2018-08-22T00:44:08.456Z,3.30
2018-08-22T00:45:08.433Z,3.30
2018-08-22T00:46:08.414Z,3.50
2018-08-22T00:47:08.399Z,3.80
2018-08-22T00:48:08.375Z,3.40
2018-08-22T00:49:08.349Z,3.20
2018-08-22T00:50:08.330Z,3.50
2018-08-22T00:51:08.309Z,3.30
2018-08-22T00:52:08.282Z,3.50
2018-08-22T00:53:08.269Z,3.70
2018-08-22T00:54:08.248Z,3.50
2018-08-22T00:55:08.228Z,3.60
2018-08-22T00:56:08.208Z,3.60
2018-08-22T00:57:08.188Z,3.50
2018-08-22T00:58:08.164Z,3.50
2018-08-22T00:59:08.144Z,3.60
2018-08-22T01:00:08.122Z,3.50
2018-08-22T01:01:08.109Z,3.40
2018-08-22T01:02:08.081Z,3.70
2018-08-22T01:03:08.060Z,3.40
2018-08-22T01:04:08.038Z,3.40
2018-08-22T01:05:08.019Z,3.70
2018-08-22T01:06:07.998Z,3.20
2018-08-22T01:07:07.977Z,3.60
2018-08-22T01:08:07.957Z,3.50
2018-08-22T01:09:07.934Z,3.20
2018-08-22T01:10:07.915Z,3.40
2018-08-22T01:11:07.894Z,3.40
2018-08-22T01:12:07.879Z,3.00
2018-08-22T01:13:07.850Z,3.90
2018-08-22T01:14:07.834Z,3.40
2018-08-22T01:15:07.811Z,3.50
2018-08-22T01:16:07.791Z,3.40
2018-08-22T01:17:07.769Z,3.20
2018-08-22T01:18:07.749Z,3.50
2018-08-22T01:19:07.727Z,3.30
2018-08-22T01:20:07.705Z,3.20
2018-08-22T01:21:07.685Z,3.40
2018-08-22T01:22:07.664Z,3.10
2018-08-22T01:23:07.643Z,3.00
2018-08-22T01:24:07.623Z,3.30
2018-08-22T01:25:07.604Z,3.30
2018-08-22T01:26:07.585Z,2.80
2018-08-22T01:27:07.561Z,3.10
2018-08-22T01:28:07.539Z,3.20
2018-08-22T01:29:07.511Z,3.70
2018-08-22T01:30:07.499Z,3.70
2018-08-22T01:31:07.478Z,3.70
2018-08-22T01:32:07.458Z,3.30
2018-08-22T01:33:07.434Z,3.20
2018-08-22T01:34:07.415Z,3.50
2018-08-22T01:35:07.399Z,3.00
2018-08-22T01:36:07.374Z,3.80
2018-08-22T01:37:07.354Z,3.30
2018-08-22T01:38:07.335Z,3.20
2018-08-22T01:39:07.314Z,3.20
2018-08-22T01:40:07.291Z,3.50
2018-08-22T01:41:07.270Z,3.00
2018-08-22T01:42:07.252Z,3.30
2018-08-22T01:43:07.233Z,3.10
2018-08-22T01:44:07.213Z,3.60
2018-08-22T01:45:07.192Z,3.10
2018-08-22T01:46:07.171Z,3.50
2018-08-22T01:47:07.148Z,3.30
2018-08-22T01:48:07.127Z,3.00
2018-08-22T01:49:07.108Z,3.40
2018-08-22T01:50:07.087Z,2.90
2018-08-22T01:51:07.067Z,3.50
2018-08-22T01:52:07.046Z,3.50
2018-08-22T01:53:07.029Z,3.20
2018-08-22T01:54:07.005Z,2.80
2018-08-22T01:55:06.990Z,3.50
2018-08-22T01:56:06.964Z,3.50
2018-08-22T01:57:06.945Z,2.90
2018-08-22T01:58:06.922Z,3.00
2018-08-22T01:59:06.905Z,3.30
2018-08-22T02:00:06.882Z,3.10
2018-08-22T02:01:06.863Z,3.40
2018-08-22T02:02:06.842Z,3.40
2018-08-22T02:03:06.822Z,3.20
2018-08-22T02:04:06.803Z,3.30
2018-08-22T02:05:06.782Z,3.30
2018-08-22T02:06:06.761Z,3.40
2018-08-22T02:07:06.741Z,3.00
2018-08-22T02:08:06.720Z,3.20
2018-08-22T02:09:06.697Z,3.10
2018-08-22T02:10:06.679Z,3.40
2018-08-22T02:11:06.663Z,2.90
2018-08-22T02:12:06.639Z,3.00
2018-08-22T02:13:06.619Z,3.10
2018-08-22T02:14:06.603Z,3.10
2018-08-22T02:15:06.578Z,3.00
2018-08-22T02:16:06.560Z,2.70
2018-08-22T02:17:06.537Z,3.10
2018-08-22T02:18:06.517Z,3.10
2018-08-22T02:19:06.497Z,3.30
2018-08-22T02:20:06.478Z,3.30
2018-08-22T02:21:06.457Z,3.00
2018-08-22T02:22:06.436Z,3.10
2018-08-22T02:23:06.418Z,3.10
2018-08-22T02:24:06.397Z,3.10
2018-08-22T02:25:06.428Z,2.70
2018-08-22T02:26:06.357Z,2.50
2018-08-22T02:27:06.338Z,3.20
2018-08-22T02:28:06.317Z,3.10
2018-08-22T02:29:06.299Z,3.10
2018-08-22T02:30:06.279Z,3.20
2018-08-22T02:31:06.256Z,2.70
2018-08-22T02:32:06.237Z,3.20
2018-08-22T02:33:06.215Z,3.50
2018-08-22T02:34:06.195Z,3.10
2018-08-22T02:35:06.178Z,3.20
2018-08-22T02:36:06.156Z,3.30
2018-08-22T02:37:06.136Z,3.40
2018-08-22T02:38:06.114Z,3.40
2018-08-22T02:39:06.095Z,3.80
2018-08-22T02:40:06.075Z,2.80
2018-08-22T02:41:06.053Z,3.10
2018-08-22T02:42:06.033Z,3.10
2018-08-22T02:43:06.013Z,3.10
2018-08-22T02:44:05.993Z,3.50
2018-08-22T02:45:05.972Z,3.50
2018-08-22T02:46:05.952Z,3.50
2018-08-22T02:47:05.931Z,3.40
2018-08-22T02:48:05.911Z,3.40
2018-08-22T02:49:05.892Z,3.20
2018-08-22T02:50:05.871Z,2.90
2018-08-22T02:51:05.853Z,3.20
2018-08-22T02:52:05.830Z,3.20
2018-08-22T02:53:05.814Z,3.10
2018-08-22T02:54:05.790Z,3.30
2018-08-22T02:55:05.773Z,3.70
2018-08-22T02:56:05.749Z,3.30
2018-08-22T02:57:05.729Z,3.40
2018-08-22T02:58:05.708Z,3.20
2018-08-22T02:59:05.696Z,3.30
2018-08-22T03:00:05.669Z,3.20
2018-08-22T03:01:05.647Z,3.00
2018-08-22T03:02:05.628Z,3.00
2018-08-22T03:03:05.607Z,3.40
2018-08-22T03:04:05.588Z,3.40
2018-08-22T03:05:05.566Z,3.40
2018-08-22T03:06:05.545Z,3.60
2018-08-22T03:07:05.527Z,3.30
2018-08-22T03:08:05.507Z,3.50
2018-08-22T03:09:05.485Z,3.00
2018-08-22T03:10:05.465Z,3.40
2018-08-22T03:11:05.445Z,3.90
2018-08-22T03:12:05.424Z,3.50
2018-08-22T03:13:05.406Z,3.30
2018-08-22T03:14:05.383Z,3.70
2018-08-22T03:15:05.363Z,3.60
2018-08-22T03:16:05.341Z,3.80
2018-08-22T03:17:05.323Z,3.20
2018-08-22T03:18:05.303Z,4.00
2018-08-22T03:19:05.281Z,3.50
2018-08-22T03:20:05.260Z,3.70
2018-08-22T03:21:05.239Z,3.50
2018-08-22T03:22:05.216Z,3.30
2018-08-22T03:23:05.200Z,3.00
2018-08-22T03:24:05.178Z,3.20
2018-08-22T03:25:05.157Z,3.20
2018-08-22T03:26:05.183Z,3.50
2018-08-22T03:27:05.115Z,3.20
2018-08-22T03:28:05.095Z,3.40
2018-08-22T03:29:05.074Z,3.50
2018-08-22T03:30:05.055Z,3.10
2018-08-22T03:31:05.037Z,3.40
2018-08-22T03:32:05.027Z,3.40
2018-08-22T03:33:04.991Z,3.30
2018-08-22T03:34:04.974Z,3.00
2018-08-22T03:35:04.951Z,4.00
2018-08-22T03:36:04.931Z,3.20
2018-08-22T03:37:04.911Z,4.30
2018-08-22T03:38:04.890Z,3.40
2018-08-22T03:39:04.872Z,3.10
2018-08-22T03:40:04.850Z,3.60
2018-08-22T03:41:04.827Z,3.40
2018-08-22T03:42:04.811Z,3.60
2018-08-22T03:43:04.790Z,3.10
2018-08-22T03:44:04.771Z,3.20
2018-08-22T03:45:04.745Z,3.00
2018-08-22T03:46:04.726Z,3.40
2018-08-22T03:47:04.706Z,3.50
2018-08-22T03:48:04.691Z,3.30
2018-08-22T03:49:04.664Z,3.20
2018-08-22T03:50:04.645Z,3.50
2018-08-22T03:51:04.624Z,3.20
2018-08-22T03:52:04.602Z,3.40
2018-08-22T03:53:04.581Z,3.30
2018-08-22T03:54:04.567Z,3.10
2018-08-22T03:55:04.544Z,3.20
2018-08-22T03:56:04.522Z,3.10
2018-08-22T03:57:04.500Z,3.60
2018-08-22T03:58:04.481Z,3.70
2018-08-22T03:59:04.459Z,3.70
2018-08-22T04:00:04.440Z,3.50
2018-08-22T04:01:04.417Z,3.50
2018-08-22T04:02:04.405Z,3.90
2018-08-22T04:03:04.383Z,3.60
2018-08-22T04:04:04.365Z,3.80
2018-08-22T04:05:04.336Z,3.40
2018-08-22T04:06:04.315Z,3.60
2018-08-22T04:07:04.296Z,3.30
2018-08-22T04:08:04.282Z,3.80
2018-08-22T04:09:04.254Z,4.30
2018-08-22T04:10:04.232Z,3.50
2018-08-22T04:11:04.213Z,3.60
2018-08-22T04:12:04.194Z,3.60
2018-08-22T04:13:04.170Z,3.70
2018-08-22T04:14:04.152Z,3.60
2018-08-22T04:15:04.133Z,3.70
2018-08-22T04:16:04.112Z,3.40
2018-08-22T04:17:04.089Z,3.30
2018-08-22T04:18:04.068Z,3.70
2018-08-22T04:19:04.048Z,3.70
2018-08-22T04:20:04.029Z,3.80
2018-08-22T04:21:04.007Z,3.60
2018-08-22T04:22:03.988Z,3.70
2018-08-22T04:23:03.964Z,3.30
2018-08-22T04:24:03.946Z,3.40
2018-08-22T04:25:03.923Z,3.70
2018-08-22T04:26:03.903Z,3.50
2018-08-22T04:27:03.885Z,3.80
2018-08-22T04:28:03.862Z,4.20
2018-08-22T04:29:03.842Z,4.00
2018-08-22T04:30:03.823Z,3.90
2018-08-22T04:31:03.802Z,3.70
2018-08-22T04:32:03.780Z,3.90
2018-08-22T04:33:03.758Z,3.60
2018-08-22T04:34:03.739Z,3.80
2018-08-22T04:35:03.718Z,3.50
2018-08-22T04:36:03.698Z,3.60
2018-08-22T04:37:03.677Z,3.50
2018-08-22T04:38:03.656Z,4.00
2018-08-22T04:39:03.636Z,3.80
2018-08-22T04:40:03.614Z,4.00
2018-08-22T04:41:03.601Z,3.70
2018-08-22T04:42:03.573Z,4.30
2018-08-22T04:43:03.550Z,4.40
2018-08-22T04:44:03.530Z,3.60
2018-08-22T04:45:03.510Z,4.00
2018-08-22T04:46:03.488Z,3.90
2018-08-22T04:47:03.469Z,3.60
2018-08-22T04:48:03.487Z,4.30
2018-08-22T04:49:03.427Z,4.00
2018-08-22T04:50:03.409Z,4.10
2018-08-22T04:51:03.389Z,3.80
2018-08-22T04:52:03.367Z,4.00
2018-08-22T04:53:03.345Z,3.70
2018-08-22T04:54:03.324Z,3.60
2018-08-22T04:55:03.304Z,4.30
2018-08-22T04:56:03.283Z,4.00
2018-08-22T04:57:03.261Z,4.00
2018-08-22T04:58:03.242Z,4.00
2018-08-22T04:59:03.225Z,3.70
2018-08-22T05:00:03.206Z,3.90
2018-08-22T05:01:03.178Z,3.70
2018-08-22T05:02:03.160Z,4.50
2018-08-22T05:03:03.138Z,4.30
2018-08-22T05:04:03.119Z,3.80
2018-08-22T05:05:03.096Z,3.40
2018-08-22T05:06:03.091Z,4.00
2018-08-22T05:07:03.058Z,3.50
2018-08-22T05:08:03.037Z,3.90
2018-08-22T05:09:03.014Z,4.30
2018-08-22T05:10:02.995Z,4.00
2018-08-22T05:11:02.975Z,4.00
2018-08-22T05:12:02.955Z,4.10
2018-08-22T05:13:02.934Z,4.40
2018-08-22T05:14:02.917Z,4.70
2018-08-22T05:15:02.892Z,4.70
2018-08-22T05:16:02.875Z,4.30
2018-08-22T05:17:02.851Z,4.50
2018-08-22T05:18:02.832Z,4.10
2018-08-22T05:19:02.813Z,3.80
2018-08-22T05:20:02.792Z,4.50
2018-08-22T05:21:02.769Z,4.10
2018-08-22T05:22:02.748Z,4.30
2018-08-22T05:23:02.730Z,4.40
2018-08-22T05:24:02.710Z,4.20
2018-08-22T05:25:02.690Z,4.20
2018-08-22T05:26:02.669Z,4.30
2018-08-22T05:27:02.654Z,3.90
2018-08-22T05:28:02.638Z,3.70
2018-08-22T05:29:02.617Z,4.50
2018-08-22T05:30:02.635Z,4.60
2018-08-22T05:31:02.654Z,4.00
2018-08-22T05:32:02.550Z,4.20
2018-08-22T05:33:02.535Z,4.00
2018-08-22T05:34:02.524Z,4.20
2018-08-22T05:35:02.492Z,4.50
2018-08-22T05:36:02.474Z,4.10
2018-08-22T05:37:02.451Z,4.40
2018-08-22T05:38:02.432Z,4.20
2018-08-22T05:39:02.412Z,4.20
2018-08-22T05:40:02.392Z,4.00
2018-08-22T05:41:02.371Z,4.00
2018-08-22T05:42:02.351Z,3.90
2018-08-22T05:43:02.333Z,3.80
2018-08-22T05:44:02.311Z,4.30
2018-08-22T05:45:02.292Z,4.50
2018-08-22T05:46:02.269Z,4.10
2018-08-22T05:47:02.253Z,4.40
2018-08-22T05:48:02.234Z,4.50
2018-08-22T05:49:02.244Z,4.30
2018-08-22T05:50:02.196Z,4.20
2018-08-22T05:51:02.172Z,4.60
2018-08-22T05:52:02.156Z,4.70
2018-08-22T05:53:02.145Z,4.00
2018-08-22T05:54:02.116Z,4.30
2018-08-22T05:55:02.098Z,4.50
2018-08-22T05:56:02.076Z,4.60
2018-08-22T05:57:02.055Z,4.50
2018-08-22T05:58:02.036Z,4.50
2018-08-22T05:59:02.018Z,4.30
2018-08-22T06:00:01.998Z,4.60
2018-08-22T06:01:01.977Z,4.70
2018-08-22T06:02:01.959Z,4.90
2018-08-22T06:03:01.942Z,5.00
2018-08-22T06:04:01.919Z,4.50
2018-08-22T06:05:01.900Z,4.80
2018-08-22T06:06:01.880Z,4.70
2018-08-22T06:07:01.863Z,5.00
2018-08-22T06:08:01.845Z,5.00
2018-08-22T06:09:01.856Z,5.30
2018-08-22T06:10:01.800Z,4.90
2018-08-22T06:11:01.784Z,4.40
2018-08-22T06:12:01.763Z,5.30
2018-08-22T06:13:01.747Z,5.20
2018-08-22T06:14:01.724Z,4.70
2018-08-22T06:15:01.709Z,5.00
2018-08-22T06:16:01.688Z,4.90
2018-08-22T06:17:01.668Z,5.00
2018-08-22T06:18:01.647Z,5.10
2018-08-22T06:19:01.631Z,5.10
2018-08-22T06:20:01.610Z,5.10
2018-08-22T06:21:01.591Z,4.30
2018-08-22T06:22:01.572Z,5.00
2018-08-22T06:23:01.553Z,5.00
2018-08-22T06:24:01.534Z,4.60
2018-08-22T06:25:01.516Z,5.10
2018-08-22T06:26:01.494Z,5.10
2018-08-22T06:27:01.477Z,5.40
2018-08-22T06:28:01.457Z,5.20
2018-08-22T06:29:01.439Z,5.10
2018-08-22T06:30:01.419Z,5.40
2018-08-22T06:31:01.401Z,5.20
2018-08-22T06:32:01.383Z,4.90
2018-08-22T06:33:01.400Z,5.20
2018-08-22T06:34:01.347Z,5.40
2018-08-22T06:35:01.327Z,4.70
2018-08-22T06:36:01.306Z,5.10
2018-08-22T06:37:01.287Z,5.10
2018-08-22T06:38:01.271Z,4.80
2018-08-22T06:39:01.251Z,5.00
2018-08-22T06:40:01.267Z,4.50
2018-08-22T06:41:01.212Z,5.00
2018-08-22T06:42:01.193Z,4.60
2018-08-22T06:43:01.175Z,4.90
2018-08-22T06:44:01.160Z,4.90
2018-08-22T06:45:01.136Z,4.70
2018-08-22T06:46:01.119Z,5.30
2018-08-22T06:47:01.102Z,4.40
2018-08-22T06:48:01.082Z,5.00
2018-08-22T06:49:01.063Z,5.10
2018-08-22T06:50:01.045Z,5.10
2018-08-22T06:51:01.026Z,4.70
2018-08-22T06:52:01.003Z,4.80
2018-08-22T06:53:00.989Z,4.70
2018-08-22T06:54:00.971Z,4.50
2018-08-22T06:55:00.954Z,4.30
2018-08-22T06:56:00.934Z,4.40
2018-08-22T06:57:00.950Z,4.80
2018-08-22T06:58:00.898Z,4.40
2018-08-22T06:59:00.884Z,3.70
2018-08-22T07:00:00.862Z,4.50
2018-08-22T07:01:00.846Z,4.70
2018-08-22T07:02:00.823Z,4.30
2018-08-22T07:03:00.810Z,4.00
2018-08-22T07:04:00.790Z,4.70
2018-08-22T07:05:00.775Z,3.90
2018-08-22T07:06:00.757Z,3.80
2018-08-22T07:07:00.741Z,4.10
2018-08-22T07:08:00.777Z,4.20
2018-08-22T07:09:00.705Z,3.60
2018-08-22T07:10:00.688Z,4.10
2018-08-22T07:11:00.670Z,4.10
2018-08-22T07:12:00.660Z,3.90
2018-08-22T07:13:00.637Z,4.40
2018-08-22T07:14:00.663Z,3.90
2018-08-22T07:15:00.607Z,4.20
2018-08-22T07:16:00.591Z,3.90
2018-08-22T07:17:00.564Z,4.00
2018-08-22T07:18:00.548Z,3.80
2018-08-22T07:19:00.532Z,3.70
2018-08-22T07:20:00.518Z,3.90
2018-08-22T07:21:00.573Z,4.10
2018-08-22T07:22:00.477Z,4.10
2018-08-22T07:23:00.462Z,4.10
2018-08-22T07:24:00.446Z,3.90
2018-08-22T07:25:00.429Z,4.40
2018-08-22T07:26:00.411Z,4.00
2018-08-22T07:27:00.394Z,4.40
2018-08-22T07:28:00.392Z,4.00
2018-08-22T07:29:00.358Z,4.50
2018-08-22T07:30:00.362Z,3.90
2018-08-22T07:31:00.325Z,4.40
2018-08-22T07:32:00.308Z,4.40
2018-08-22T07:33:00.323Z,4.60
2018-08-22T07:34:00.275Z,3.90
2018-08-22T07:35:00.251Z,4.50
2018-08-22T07:36:00.239Z,4.00
2018-08-22T07:37:00.218Z,4.00
2018-08-22T07:38:00.203Z,4.70
2018-08-22T07:39:00.193Z,4.50
2018-08-22T07:40:00.171Z,3.70
2018-08-22T07:41:00.150Z,4.40
2018-08-22T07:42:00.135Z,4.20
2018-08-22T07:43:00.111Z,4.10
2018-08-22T07:44:00.098Z,4.60
2018-08-22T07:45:00.083Z,4.60
2018-08-22T07:46:00.084Z,4.20
2018-08-22T07:47:00.061Z,4.50
2018-08-22T07:48:00.027Z,3.90
2018-08-22T07:49:00.013Z,4.40
2018-08-22T07:49:59.998Z,3.90
2018-08-22T07:50:59.976Z,4.50
2018-08-22T07:51:59.973Z,4.40
2018-08-22T07:52:59.944Z,4.20
2018-08-22T07:53:59.926Z,4.10
2018-08-22T07:54:59.922Z,3.70
2018-08-22T07:55:59.920Z,4.20
2018-08-22T07:56:59.874Z,3.90
2018-08-22T07:57:59.868Z,4.60
2018-08-22T07:58:59.836Z,4.00
2018-08-22T07:59:59.856Z,3.40
2018-08-22T08:00:59.806Z,3.90
2018-08-22T08:01:59.846Z,4.20
2018-08-22T08:02:59.779Z,4.30
2018-08-22T08:03:59.754Z,4.20
2018-08-22T08:04:59.749Z,3.60
2018-08-22T08:05:59.715Z,4.00
2018-08-22T08:06:59.711Z,3.90
2018-08-22T08:07:59.695Z,3.60
2018-08-22T08:08:59.722Z,3.60
2018-08-22T08:09:59.706Z,4.00
2018-08-22T08:10:59.680Z,3.60
2018-08-22T08:11:59.615Z,3.60
2018-08-22T08:12:59.619Z,3.70
2018-08-22T08:13:59.589Z,3.70
2018-08-22T08:14:59.568Z,3.80
2018-08-22T08:15:59.563Z,3.50
2018-08-22T08:16:59.580Z,3.40
2018-08-22T08:17:59.533Z,3.90
2018-08-22T08:18:59.519Z,3.90
2018-08-22T08:19:59.484Z,3.60
2018-08-22T08:20:59.478Z,3.50
2018-08-22T08:21:59.456Z,3.80
2018-08-22T08:22:59.435Z,3.30
2018-08-22T08:23:59.419Z,3.40
2018-08-22T08:24:59.394Z,3.10
2018-08-22T08:25:59.402Z,3.80
2018-08-22T08:26:59.364Z,3.40
2018-08-22T08:27:59.348Z,3.50
2018-08-22T08:28:59.447Z,3.20
2018-08-22T08:29:59.316Z,3.10
2018-08-22T08:30:59.308Z,3.40
2018-08-22T08:31:59.287Z,3.40
2018-08-22T08:32:59.271Z,3.20
2018-08-22T08:33:59.257Z,3.20
2018-08-22T08:34:59.256Z,3.40
2018-08-22T08:35:59.238Z,3.70
2018-08-22T08:36:59.211Z,3.30
2018-08-22T08:37:59.207Z,3.40
2018-08-22T08:38:59.176Z,3.40
2018-08-22T08:39:59.228Z,2.90
2018-08-22T08:40:59.142Z,2.80
2018-08-22T08:41:59.127Z,2.90
2018-08-22T08:42:59.164Z,2.80
2018-08-22T08:43:59.101Z,3.00
2018-08-22T08:44:59.093Z,2.80
2018-08-22T08:45:59.072Z,2.90
2018-08-22T08:46:59.102Z,2.50
2018-08-22T08:47:59.045Z,3.00
2018-08-22T08:48:59.030Z,2.40
2018-08-22T08:49:59.017Z,2.50
2018-08-22T08:50:59.070Z,2.50
2018-08-22T08:51:58.991Z,1.90
2018-08-22T08:52:58.974Z,2.20
2018-08-22T08:53:58.965Z,2.30
2018-08-22T08:54:58.963Z,2.20
2018-08-22T08:55:58.936Z,2.00
2018-08-22T08:56:58.919Z,2.40
2018-08-22T08:57:58.908Z,2.20
2018-08-22T08:58:58.903Z,2.20
2018-08-22T08:59:58.891Z,2.30
2018-08-22T09:00:58.875Z,2.20
2018-08-22T09:01:58.866Z,2.60
2018-08-22T09:02:58.852Z,2.30
2018-08-22T09:03:58.849Z,2.20
2018-08-22T09:04:58.829Z,2.30
2018-08-22T09:05:58.815Z,2.40
2018-08-22T09:06:58.805Z,2.20
2018-08-22T09:07:58.790Z,2.10
2018-08-22T09:08:58.787Z,2.10
2018-08-22T09:09:58.773Z,2.10
2018-08-22T09:10:58.765Z,2.30
2018-08-22T09:11:58.750Z,2.10
2018-08-22T09:12:58.739Z,2.40
2018-08-22T09:13:58.725Z,2.30
2018-08-22T09:14:58.730Z,2.40
2018-08-22T09:15:58.713Z,2.20
2018-08-22T09:16:58.703Z,2.70
2018-08-22T09:17:58.691Z,2.40
2018-08-22T09:18:58.682Z,2.20
2018-08-22T09:19:58.678Z,2.30
2018-08-22T09:20:58.669Z,2.30
2018-08-22T09:21:58.649Z,2.20
2018-08-22T09:22:58.646Z,2.50
2018-08-22T09:23:58.642Z,2.50
2018-08-22T09:24:58.620Z,2.20
2018-08-22T09:25:58.616Z,2.60
2018-08-22T09:26:58.599Z,2.20
2018-08-22T09:27:58.605Z,2.60
2018-08-22T09:28:58.581Z,2.70
2018-08-22T09:29:58.581Z,2.80
2018-08-22T09:30:58.567Z,2.00
2018-08-22T09:31:58.562Z,2.50
2018-08-22T09:32:58.552Z,3.00
2018-08-22T09:33:58.539Z,2.40
2018-08-22T09:34:58.535Z,2.40
2018-08-22T09:35:58.534Z,3.10
2018-08-22T09:36:58.525Z,2.90
2018-08-22T09:37:58.513Z,5.60
2018-08-22T09:38:58.501Z,3.30
2018-08-22T09:39:58.539Z,2.80
2018-08-22T09:40:58.486Z,3.80
2018-08-22T09:41:58.478Z,2.90
2018-08-22T09:42:58.469Z,2.80
2018-08-22T09:43:58.460Z,2.60
2018-08-22T09:44:58.451Z,2.70
2018-08-22T09:45:58.449Z,2.80
2018-08-22T09:46:58.441Z,2.70
2018-08-22T09:47:58.430Z,2.80
2018-08-22T09:48:58.423Z,2.50
2018-08-22T09:49:58.417Z,2.70
2018-08-22T09:50:58.491Z,2.60
2018-08-22T09:51:58.402Z,3.00
2018-08-22T09:52:58.391Z,2.70
2018-08-22T09:53:58.385Z,3.00
2018-08-22T09:54:58.373Z,2.50
2018-08-22T09:55:58.370Z,2.80
2018-08-22T09:56:58.364Z,3.00
2018-08-22T09:57:58.358Z,2.90
2018-08-22T09:58:58.347Z,2.70
2018-08-22T09:59:58.354Z,2.70
2018-08-22T10:00:58.340Z,3.10
2018-08-22T10:01:58.321Z,2.90
2018-08-22T10:02:58.319Z,2.60
2018-08-22T10:03:58.318Z,3.00
2018-08-22T10:04:58.305Z,3.00
2018-08-22T10:05:58.297Z,2.90
2018-08-22T10:06:58.318Z,2.60
2018-08-22T10:07:58.286Z,2.80
2018-08-22T10:08:58.276Z,3.10
2018-08-22T10:09:58.292Z,2.90
2018-08-22T10:10:58.266Z,2.90
2018-08-22T10:11:58.261Z,3.00
2018-08-22T10:12:58.250Z,2.80
2018-08-22T10:13:58.243Z,2.90
2018-08-22T10:14:58.237Z,2.80
2018-08-22T10:15:58.232Z,3.20
2018-08-22T10:16:58.218Z,3.00
2018-08-22T10:17:58.215Z,3.30
2018-08-22T10:18:58.250Z,3.20
2018-08-22T10:19:58.216Z,2.90
2018-08-22T10:20:58.199Z,3.00
2018-08-22T10:21:58.192Z,2.90
2018-08-22T10:22:58.189Z,2.50
2018-08-22T10:23:58.179Z,3.00
2018-08-22T10:24:58.174Z,3.40
2018-08-22T10:25:58.170Z,3.00
2018-08-22T10:26:58.180Z,3.10
2018-08-22T10:27:58.159Z,3.20
2018-08-22T10:28:58.157Z,3.40
2018-08-22T10:29:58.142Z,3.10
2018-08-22T10:30:58.143Z,2.90
2018-08-22T10:31:58.139Z,2.80
2018-08-22T10:32:58.181Z,3.00
2018-08-22T10:33:58.129Z,3.20
2018-08-22T10:34:58.126Z,3.30
2018-08-22T10:35:58.114Z,2.90
2018-08-22T10:36:58.111Z,3.10
2018-08-22T10:37:58.105Z,2.90
2018-08-22T10:38:58.103Z,2.70
2018-08-22T10:39:58.151Z,2.80
2018-08-22T10:40:58.094Z,3.00
2018-08-22T10:41:58.084Z,3.20
2018-08-22T10:42:58.100Z,3.10
2018-08-22T10:43:58.076Z,3.40
2018-08-22T10:44:58.070Z,3.30
2018-08-22T10:45:58.064Z,2.90
2018-08-22T10:46:58.061Z,2.80
2018-08-22T10:47:58.067Z,3.00
2018-08-22T10:48:58.049Z,3.60
2018-08-22T10:49:58.041Z,2.70
2018-08-22T10:50:58.046Z,3.00
2018-08-22T10:51:58.041Z,2.90
2018-08-22T10:52:58.034Z,2.60
2018-08-22T10:53:58.086Z,2.90
2018-08-22T10:54:58.024Z,3.20
2018-08-22T10:55:58.023Z,2.50
2018-08-22T10:56:58.021Z,3.00
2018-08-22T10:57:58.017Z,3.30
2018-08-22T10:58:58.010Z,3.20
2018-08-22T10:59:58.013Z,3.10
2018-08-22T11:00:58.007Z,3.00
2018-08-22T11:01:58.010Z,2.80
2018-08-22T11:02:58.003Z,3.00
2018-08-22T11:03:57.999Z,3.00
2018-08-22T11:04:57.996Z,3.00
2018-08-22T11:05:57.995Z,3.00
2018-08-22T11:06:57.986Z,3.30
2018-08-22T11:07:57.989Z,3.10
2018-08-22T11:08:57.984Z,3.10
2018-08-22T11:09:58.044Z,3.30
2018-08-22T11:10:57.982Z,3.00
2018-08-22T11:11:57.979Z,2.60
2018-08-22T11:12:57.981Z,3.10
2018-08-22T11:13:57.975Z,3.60
2018-08-22T11:14:57.977Z,2.90
2018-08-22T11:15:57.992Z,3.10
2018-08-22T11:16:57.970Z,3.30
2018-08-22T11:17:57.970Z,2.80
2018-08-22T11:18:57.969Z,3.40
2018-08-22T11:19:57.964Z,3.20
2018-08-22T11:20:57.961Z,2.50
2018-08-22T11:21:57.962Z,2.90
2018-08-22T11:22:57.955Z,2.70
2018-08-22T11:23:57.957Z,3.00
2018-08-22T11:24:57.953Z,2.90
2018-08-22T11:25:57.953Z,2.90
2018-08-22T11:26:57.951Z,3.00
2018-08-22T11:27:57.953Z,3.10
2018-08-22T11:28:57.947Z,3.30
2018-08-22T11:29:57.945Z,3.40
2018-08-22T11:30:57.939Z,3.10
2018-08-22T11:31:57.941Z,3.30
2018-08-22T11:32:57.940Z,3.00
2018-08-22T11:33:57.939Z,2.90
2018-08-22T11:34:57.936Z,3.10
2018-08-22T11:35:57.932Z,3.00
2018-08-22T11:36:57.936Z,3.20
2018-08-22T11:37:57.935Z,3.30
2018-08-22T11:38:57.935Z,3.10
2018-08-22T11:39:57.932Z,3.60
2018-08-22T11:40:57.933Z,3.00
2018-08-22T11:41:57.930Z,2.90
2018-08-22T11:42:57.934Z,2.80
2018-08-22T11:43:57.929Z,3.00
2018-08-22T11:44:57.926Z,3.60
2018-08-22T11:45:57.925Z,2.80
2018-08-22T11:46:57.924Z,2.90
2018-08-22T11:47:57.921Z,3.30
2018-08-22T11:48:57.920Z,3.10
2018-08-22T11:49:57.917Z,3.10
2018-08-22T11:50:57.918Z,3.30
2018-08-22T11:51:57.916Z,3.60
2018-08-22T11:52:57.914Z,3.40
2018-08-22T11:53:57.911Z,3.20
2018-08-22T11:54:57.913Z,2.90
2018-08-22T11:55:57.913Z,3.50
2018-08-22T11:56:57.906Z,3.40
2018-08-22T11:57:57.908Z,3.00
2018-08-22T11:58:57.906Z,3.20
2018-08-22T11:59:57.904Z,3.00
2018-08-22T12:00:57.900Z,3.30
2018-08-22T12:01:57.988Z,2.90
2018-08-22T12:02:57.906Z,2.90
2018-08-22T12:03:57.899Z,3.20
2018-08-22T12:04:57.904Z,3.30
2018-08-22T12:05:57.897Z,3.10
2018-08-22T12:06:57.899Z,3.50
2018-08-22T12:07:57.896Z,3.60
2018-08-22T12:08:57.894Z,3.40
2018-08-22T12:09:57.898Z,3.20
2018-08-22T12:10:57.892Z,3.10
2018-08-22T12:11:57.890Z,3.20
2018-08-22T12:12:57.891Z,3.20
2018-08-22T12:13:57.883Z,3.50
2018-08-22T12:14:57.884Z,3.50
2018-08-22T12:15:57.879Z,3.50
2018-08-22T12:16:57.876Z,3.60
2018-08-22T12:17:57.873Z,3.20
2018-08-22T12:18:57.872Z,3.50
2018-08-22T12:19:57.871Z,3.30
2018-08-22T12:20:57.868Z,3.10
2018-08-22T12:21:57.863Z,3.10
2018-08-22T12:22:57.894Z,3.50
2018-08-22T12:23:57.865Z,2.90
2018-08-22T12:24:57.862Z,3.30
2018-08-22T12:25:57.862Z,3.30
2018-08-22T12:26:57.860Z,3.40
2018-08-22T12:27:57.860Z,3.10
2018-08-22T12:28:57.856Z,3.40
2018-08-22T12:29:57.857Z,2.90
2018-08-22T12:30:57.860Z,3.30
2018-08-22T12:31:57.855Z,3.20
2018-08-22T12:32:57.850Z,3.30
2018-08-22T12:33:57.849Z,3.50
2018-08-22T12:34:57.851Z,3.40
2018-08-22T12:35:57.845Z,3.50
2018-08-22T12:36:57.859Z,2.90
2018-08-22T12:37:57.839Z,3.10
2018-08-22T12:38:57.833Z,3.40
2018-08-22T12:39:57.837Z,3.00
2018-08-22T12:40:57.828Z,3.40
2018-08-22T12:41:57.825Z,3.20
2018-08-22T12:42:57.823Z,3.50
2018-08-22T12:43:57.821Z,3.50
2018-08-22T12:44:57.816Z,3.30
2018-08-22T12:45:57.811Z,3.10
2018-08-22T12:46:57.811Z,2.90
2018-08-22T12:47:57.809Z,3.30
2018-08-22T12:48:57.804Z,3.10
2018-08-22T12:49:57.802Z,2.90
2018-08-22T12:50:57.801Z,3.10
2018-08-22T12:51:57.803Z,2.90
2018-08-22T12:52:57.794Z,3.30
2018-08-22T12:53:57.792Z,3.50
2018-08-22T12:54:57.805Z,3.30
2018-08-22T12:55:57.793Z,3.60
2018-08-22T12:56:57.785Z,2.80
2018-08-22T12:57:57.781Z,3.50
2018-08-22T12:58:57.779Z,3.40
2018-08-22T12:59:57.776Z,3.20
2018-08-22T13:00:57.773Z,3.10
2018-08-22T13:01:57.772Z,3.30
2018-08-22T13:02:57.773Z,3.10
2018-08-22T13:03:57.774Z,3.20
2018-08-22T13:04:57.768Z,3.20
2018-08-22T13:05:57.764Z,2.80
2018-08-22T13:06:57.766Z,3.10
2018-08-22T13:07:57.763Z,3.30
2018-08-22T13:08:57.761Z,3.00
2018-08-22T13:09:57.762Z,3.30
2018-08-22T13:10:57.761Z,2.90
2018-08-22T13:11:57.761Z,3.50
2018-08-22T13:12:57.762Z,3.20
2018-08-22T13:13:57.764Z,3.30
2018-08-22T13:14:57.763Z,3.20
2018-08-22T13:15:57.768Z,3.00
2018-08-22T13:16:57.792Z,3.10
2018-08-22T13:17:57.765Z,3.00